Liberty — FHQD — position and weather

sailwx.info

Track history (hours):
 
Tides and Currents Weather Stations Pressure Air Temp Water Temp Dewpoint Dewpoint Depression Visibility Wind Speed Wind Dir Waves Ship Positions

Liberty

Last reported at 2018-Jan-21 09:59 UTC. Time now 2018-Jan-21 10:19 UTC.
Position N 16°14' W 061°32'.

Length 47 m; draft 1.8 m.

Type: High speed craft. MMSI: 228008600.

Date/timePositionNaut miles runAvg speedWind from/ knotsBaromVisibWave heightAir tempDewpointWater temp
2018-Jan-21 09:59N 16°14' W 061°32'0 0.0
2018-Jan-21 09:26N 16°14' W 061°32'0 0.0
2018-Jan-21 08:58N 16°14' W 061°32'0 0.0
2018-Jan-21 07:57N 16°14' W 061°32'0 0.0
2018-Jan-21 07:26N 16°14' W 061°32'0 0.0
2018-Jan-21 06:46N 16°14' W 061°32'0 0.0
2018-Jan-21 06:30N 16°14' W 061°32'0 0.0
2018-Jan-21 04:30N 16°14' W 061°32'0 0.0
2018-Jan-21 03:39N 16°14' W 061°32'0 0.0
2018-Jan-21 03:19N 16°14' W 061°32'0 0.0
2018-Jan-21 02:55N 16°14' W 061°32'0 0.0
2018-Jan-21 02:01N 16°14' W 061°32'0 0.0
2018-Jan-21 01:59N 16°14' W 061°32'0 0.0
2018-Jan-21 01:26N 16°14' W 061°32'0 0.0
2018-Jan-20 23:45N 16°14' W 061°32'0 0.0
2018-Jan-20 22:25N 16°14' W 061°32'817.8
2018-Jan-20 21:56N 16°06' W 061°31'1326.1
2018-Jan-20 21:27N 15°54' W 061°35'8418.0
2018-Jan-20 16:49N 14°35' W 061°05'2 2.2
2018-Jan-20 16:06N 14°36' W 061°04'0 0.0
2018-Jan-20 15:48N 14°36' W 061°04'617.2
2018-Jan-20 15:27N 14°31' W 061°07'1227.8
2018-Jan-20 15:00N 14°19' W 061°05'5 0.2
2018-Jan-19 18:10N 14°15' W 061°02'526.7
2018-Jan-19 17:59N 14°19' W 061°03'1426.1
2018-Jan-19 17:27N 14°33' W 061°05'3 3.4
2018-Jan-19 16:30N 14°36' W 061°04'9023.1
2018-Jan-19 12:37N 16°02' W 061°30'426.9
2018-Jan-19 12:28N 16°06' W 061°30'914.6
2018-Jan-19 11:53N 16°14' W 061°32'0 0.0
2018-Jan-19 11:20N 16°14' W 061°32'0 0.0
2018-Jan-19 11:00N 16°14' W 061°32'0 0.0
2018-Jan-19 10:30N 16°14' W 061°32'0 0.0
2018-Jan-19 10:00N 16°14' W 061°32'0 0.0
2018-Jan-19 09:26N 16°14' W 061°32'0 0.0
2018-Jan-19 08:58N 16°14' W 061°32'0 0.0
2018-Jan-19 08:21N 16°14' W 061°32'0 0.0
2018-Jan-19 07:58N 16°14' W 061°32'0 0.0
2018-Jan-19 07:30N 16°14' W 061°32'0 0.0
2018-Jan-19 07:00N 16°14' W 061°32'0 0.0
2018-Jan-19 06:18N 16°14' W 061°32'0 0.0
2018-Jan-19 05:59N 16°14' W 061°32'0 0.0
2018-Jan-19 05:24N 16°14' W 061°32'0 0.0
2018-Jan-19 05:00N 16°14' W 061°32'0 0.0
2018-Jan-19 04:30N 16°14' W 061°32'0 0.0
2018-Jan-19 04:00N 16°14' W 061°32'0 0.0
2018-Jan-19 03:27N 16°14' W 061°32'0 0.0
2018-Jan-19 02:57N 16°14' W 061°32'0 0.0
2018-Jan-19 02:16N 16°14' W 061°32'0 0.0
2018-Jan-19 01:52N 16°14' W 061°32'0 0.0
2018-Jan-19 01:16N 16°14' W 061°32'0 0.0
2018-Jan-19 00:57N 16°14' W 061°32'0 0.0
2018-Jan-19 00:18N 16°14' W 061°32'0 0.0
2018-Jan-18 23:56N 16°14' W 061°32'0 0.0
2018-Jan-18 22:43N 16°14' W 061°32'0 0.0
2018-Jan-18 22:28N 16°14' W 061°32'0 0.0
2018-Jan-18 21:02N 16°14' W 061°33'0 0.0
2018-Jan-18 20:58N 16°14' W 061°33'0 0.2
2018-Jan-18 20:31N 16°14' W 061°33'  
2018-Jan-12 12:44N 16°07' W 061°30'626.1
2018-Jan-12 12:30N 16°13' W 061°32'2 1.2
2018-Jan-12 11:04N 16°14' W 061°33'1 9.9
2018-Jan-12 11:00N 16°14' W 061°32'4 0.3
2018-Jan-11 21:35N 16°10' W 061°30'5 8.8
2018-Jan-11 21:02N 16°14' W 061°32'110.2
2018-Jan-11 20:58N 16°13' W 061°32'4 1.2
2018-Jan-11 17:35N 16°10' W 061°29'226.5
2018-Jan-11 17:30N 16°12' W 061°31'2 4.9
2018-Jan-11 17:00N 16°14' W 061°32'10 2.4
2018-Jan-11 12:49N 16°05' W 061°28'824.4
2018-Jan-11 12:28N 16°12' W 061°31'  
Track history (hours):
 
Tides and Currents Weather Stations Pressure Air Temp Water Temp Dewpoint Dewpoint Depression Visibility Wind Speed Wind Dir Waves Ship Positions

Liberty

Last reported at 2018-Jan-21 09:59 UTC. Time now 2018-Jan-21 10:19 UTC.
Position N 16°14' W 061°32'.

Length 47 m; draft 1.8 m.

Type: High speed craft. MMSI: 228008600.

Date/timePositionNaut miles runAvg speedWind from/ knotsBaromVisibWave heightAir tempDewpointWater temp
2018-Jan-21 09:59N 16°14' W 061°32'0 0.0
2018-Jan-21 09:26N 16°14' W 061°32'0 0.0
2018-Jan-21 08:58N 16°14' W 061°32'0 0.0
2018-Jan-21 07:57N 16°14' W 061°32'0 0.0
2018-Jan-21 07:26N 16°14' W 061°32'0 0.0
2018-Jan-21 06:46N 16°14' W 061°32'0 0.0
2018-Jan-21 06:30N 16°14' W 061°32'0 0.0
2018-Jan-21 04:30N 16°14' W 061°32'0 0.0
2018-Jan-21 03:39N 16°14' W 061°32'0 0.0
2018-Jan-21 03:19N 16°14' W 061°32'0 0.0
2018-Jan-21 02:55N 16°14' W 061°32'0 0.0
2018-Jan-21 02:01N 16°14' W 061°32'0 0.0
2018-Jan-21 01:59N 16°14' W 061°32'0 0.0
2018-Jan-21 01:26N 16°14' W 061°32'0 0.0
2018-Jan-20 23:45N 16°14' W 061°32'0 0.0
2018-Jan-20 22:25N 16°14' W 061°32'817.8
2018-Jan-20 21:56N 16°06' W 061°31'1326.1
2018-Jan-20 21:27N 15°54' W 061°35'8418.0
2018-Jan-20 16:49N 14°35' W 061°05'2 2.2
2018-Jan-20 16:06N 14°36' W 061°04'0 0.0
2018-Jan-20 15:48N 14°36' W 061°04'617.2
2018-Jan-20 15:27N 14°31' W 061°07'1227.8
2018-Jan-20 15:00N 14°19' W 061°05'5 0.2
2018-Jan-19 18:10N 14°15' W 061°02'526.7
2018-Jan-19 17:59N 14°19' W 061°03'1426.1
2018-Jan-19 17:27N 14°33' W 061°05'3 3.4
2018-Jan-19 16:30N 14°36' W 061°04'9023.1
2018-Jan-19 12:37N 16°02' W 061°30'426.9
2018-Jan-19 12:28N 16°06' W 061°30'914.6
2018-Jan-19 11:53N 16°14' W 061°32'0 0.0
2018-Jan-19 11:20N 16°14' W 061°32'0 0.0
2018-Jan-19 11:00N 16°14' W 061°32'0 0.0
2018-Jan-19 10:30N 16°14' W 061°32'0 0.0
2018-Jan-19 10:00N 16°14' W 061°32'0 0.0
2018-Jan-19 09:26N 16°14' W 061°32'0 0.0
2018-Jan-19 08:58N 16°14' W 061°32'0 0.0
2018-Jan-19 08:21N 16°14' W 061°32'0 0.0
2018-Jan-19 07:58N 16°14' W 061°32'0 0.0
2018-Jan-19 07:30N 16°14' W 061°32'0 0.0
2018-Jan-19 07:00N 16°14' W 061°32'0 0.0
2018-Jan-19 06:18N 16°14' W 061°32'0 0.0
2018-Jan-19 05:59N 16°14' W 061°32'0 0.0
2018-Jan-19 05:24N 16°14' W 061°32'0 0.0
2018-Jan-19 05:00N 16°14' W 061°32'0 0.0
2018-Jan-19 04:30N 16°14' W 061°32'0 0.0
2018-Jan-19 04:00N 16°14' W 061°32'0 0.0
2018-Jan-19 03:27N 16°14' W 061°32'0 0.0
2018-Jan-19 02:57N 16°14' W 061°32'0 0.0
2018-Jan-19 02:16N 16°14' W 061°32'0 0.0
2018-Jan-19 01:52N 16°14' W 061°32'0 0.0
2018-Jan-19 01:16N 16°14' W 061°32'0 0.0
2018-Jan-19 00:57N 16°14' W 061°32'0 0.0
2018-Jan-19 00:18N 16°14' W 061°32'0 0.0
2018-Jan-18 23:56N 16°14' W 061°32'0 0.0
2018-Jan-18 22:43N 16°14' W 061°32'0 0.0
2018-Jan-18 22:28N 16°14' W 061°32'0 0.0
2018-Jan-18 21:02N 16°14' W 061°33'0 0.0
2018-Jan-18 20:58N 16°14' W 061°33'0 0.2
2018-Jan-18 20:31N 16°14' W 061°33'  
2018-Jan-12 12:44N 16°07' W 061°30'626.1
2018-Jan-12 12:30N 16°13' W 061°32'2 1.2
2018-Jan-12 11:04N 16°14' W 061°33'1 9.9
2018-Jan-12 11:00N 16°14' W 061°32'4 0.3
2018-Jan-11 21:35N 16°10' W 061°30'5 8.8
2018-Jan-11 21:02N 16°14' W 061°32'110.2
2018-Jan-11 20:58N 16°13' W 061°32'4 1.2
2018-Jan-11 17:35N 16°10' W 061°29'226.5
2018-Jan-11 17:30N 16°12' W 061°31'2 4.9
2018-Jan-11 17:00N 16°14' W 061°32'10 2.4
2018-Jan-11 12:49N 16°05' W 061°28'824.4
2018-Jan-11 12:28N 16°12' W 061°31'  

Dump ship's entire track history